Time;durP1;ratioP1;P1;durP2;ratioP2;P2;SDS_P1;SDS_P2;PMS_P1;PMS_P2;Temp;Humidity;BMP_temperature;BMP_pressure;BME280_temperature;BME280_humidity;BME280_pressure;Samples;Min_cycle;Max_cycle;Signal;HPM_P1;HPM_P2
2022/11/24 00:01:27;;;;;;;13.77;5.70;;;;;;;6.26;100.00;99535.03;4988154;28;20499;-68
2022/11/24 00:03:57;;;;;;;19.02;6.75;;;;;;;6.35;100.00;99553.03;4990390;28;20473;-70
2022/11/24 00:06:25;;;;;;;13.95;8.27;;;;;;;6.34;100.00;99552.16;5005938;28;20056;-71
2022/11/24 00:08:52;;;;;;;15.20;7.60;;;;;;;6.39;100.00;99553.75;4999316;28;20140;-69
2022/11/24 00:11:22;;;;;;;14.25;7.03;;;;;;;6.26;100.00;99527.13;4983810;28;20070;-68
2022/11/24 00:13:49;;;;;;;13.43;5.55;;;;;;;6.41;100.00;99552.78;5000099;28;20143;-69
2022/11/24 00:16:18;;;;;;;14.35;5.80;;;;;;;6.40;100.00;99552.84;5001896;28;20047;-70
2022/11/24 00:18:48;;;;;;;17.33;5.40;;;;;;;6.40;100.00;99553.69;4990488;28;20050;-69
2022/11/24 00:21:16;;;;;;;;;;;;;;;6.42;100.00;99557.13;4985512;28;20503;-69
2022/11/24 00:23:43;;;;;;;15.50;5.70;;;;;;;6.43;100.00;99553.56;4989572;28;19933;-69
2022/11/24 00:26:29;;;;;;;13.85;6.38;;;;;;;6.56;100.00;99557.38;4995268;28;20503;-69
2022/11/24 00:29:01;;;;;;;15.93;5.68;;;;;;;6.60;100.00;99558.09;4997036;28;20465;-69
2022/11/24 00:31:34;;;;;;;17.27;5.18;;;;;;;6.62;100.00;99556.22;4989599;28;20733;-70
2022/11/24 00:34:03;;;;;;;11.57;4.80;;;;;;;6.62;100.00;99564.09;4995905;28;20053;-68
2022/11/24 00:36:32;;;;;;;17.40;5.18;;;;;;;6.59;100.00;99564.28;5001686;28;20137;-73
2022/11/24 00:39:05;;;;;;;11.50;4.68;;;;;;;6.59;100.00;99573.00;4993820;28;20134;-71
2022/11/24 00:41:32;;;;;;;15.70;4.70;;;;;;;6.52;100.00;99575.97;4987861;28;20543;-71
2022/11/24 00:43:59;;;;;;;15.93;5.80;;;;;;;6.49;100.00;99578.72;4999283;28;20149;-68
2022/11/24 00:46:26;;;;;;;12.82;5.55;;;;;;;6.45;100.00;99583.28;4999590;28;20498;-70
2022/11/24 00:48:54;;;;;;;17.77;5.25;;;;;;;6.45;100.00;99596.44;5005411;28;20400;-68
2022/11/24 00:51:23;;;;;;;14.30;5.53;;;;;;;6.32;100.00;99582.94;4987175;28;20384;-69
2022/11/24 00:53:50;;;;;;;15.77;4.72;;;;;;;6.36;100.00;99593.31;4988076;28;20141;-70
2022/11/24 00:56:16;;;;;;;17.73;6.00;;;;;;;6.32;100.00;99592.59;5000056;28;20113;-69
2022/11/24 00:58:43;;;;;;;12.98;4.90;;;;;;;6.25;100.00;99589.38;4999201;28;20056;-69
2022/11/24 01:01:16;;;;;;;13.57;4.97;;;;;;;6.25;100.00;99588.53;4996738;28;20042;-70
2022/11/24 01:03:43;;;;;;;18.48;5.50;;;;;;;6.28;100.00;99610.28;4985439;28;20372;-67
2022/11/24 01:06:24;;;;;;;17.95;5.10;;;;;;;6.29;100.00;99612.00;4997431;28;20054;-69
2022/11/24 01:08:51;;;;;;;13.40;4.80;;;;;;;6.29;100.00;99621.66;4996273;28;20541;-71
2022/11/24 01:11:24;;;;;;;16.20;5.68;;;;;;;6.31;100.00;99622.44;4984567;28;20065;-69
2022/11/24 01:13:54;;;;;;;19.10;5.47;;;;;;;6.31;100.00;99617.16;4995397;28;20513;-70
2022/11/24 01:16:23;;;;;;;13.98;5.13;;;;;;;6.34;100.00;99611.78;4992144;28;20042;-70
2022/11/24 01:18:50;;;;;;;21.15;5.70;;;;;;;6.36;100.00;99604.69;4992735;28;20069;-72
2022/11/24 01:21:17;;;;;;;15.57;5.45;;;;;;;6.40;100.00;99611.53;4992205;28;20054;-72
2022/11/24 01:23:44;;;;;;;21.25;5.40;;;;;;;6.40;100.00;99615.94;4982872;28;20137;-71
2022/11/24 01:26:14;;;;;;;13.82;5.07;;;;;;;6.38;100.00;99618.63;4998384;28;20454;-71
2022/11/24 01:28:41;;;;;;;14.48;5.00;;;;;;;6.40;100.00;99643.09;4993139;28;20058;-69
2022/11/24 01:31:14;;;;;;;15.70;5.28;;;;;;;6.37;100.00;99630.06;4991194;28;20059;-70
2022/11/24 01:33:41;;;;;;;20.15;5.05;;;;;;;6.36;100.00;99631.00;4984911;28;20053;-68
2022/11/24 01:36:08;;;;;;;15.05;6.00;;;;;;;6.33;100.00;99633.75;5000591;28;20549;-70
2022/11/24 01:38:34;;;;;;;18.17;5.25;;;;;;;6.34;100.00;99638.09;4996811;28;20046;-69
2022/11/24 01:41:06;;;;;;;16.48;5.88;;;;;;;6.34;100.00;99644.19;4992815;28;20137;-68
2022/11/24 01:43:33;;;;;;;17.25;6.57;;;;;;;6.32;100.00;99643.41;4980285;28;20129;-68
2022/11/24 01:46:05;;;;;;;14.90;5.80;;;;;;;6.36;100.00;99645.91;4998124;28;20169;-71
2022/11/24 01:48:39;;;;;;;14.68;5.20;;;;;;;6.34;100.00;99641.56;4994070;28;20072;-69
2022/11/24 01:51:28;;;;;;;17.15;5.50;;;;;;;6.38;100.00;99642.31;4994518;28;20562;-68
2022/11/24 01:54:19;;;;;;;15.65;5.57;;;;;;;6.42;100.00;99648.28;4987161;28;20191;-71
2022/11/24 01:56:51;;;;;;;19.13;5.20;;;;;;;6.46;100.00;99650.72;4998334;28;20062;-69
2022/11/24 01:59:19;;;;;;;13.85;5.55;;;;;;;6.48;100.00;99648.03;4996241;28;20129;-69
2022/11/24 02:01:49;;;;;;;11.70;5.63;;;;;;;6.36;100.00;99632.75;4994595;28;20330;-68
2022/11/24 02:04:22;;;;;;;15.52;4.90;;;;;;;6.50;100.00;99651.44;4989617;28;20086;-68
2022/11/24 02:06:51;;;;;;;13.77;5.55;;;;;;;6.49;100.00;99652.38;4991264;28;20142;-70
2022/11/24 02:09:41;;;;;;;18.90;5.53;;;;;;;6.46;100.00;99650.72;4995172;28;20074;-70
2022/11/24 02:12:08;;;;;;;15.70;5.05;;;;;;;6.39;100.00;99638.75;4973877;28;20497;-67
2022/11/24 02:14:37;;;;;;;17.98;5.15;;;;;;;6.47;100.00;99655.06;4998510;28;20141;-69
2022/11/24 02:17:04;;;;;;;16.13;6.00;;;;;;;6.45;100.00;99664.81;4996801;28;20141;-70
2022/11/24 02:19:40;;;;;;;16.83;5.35;;;;;;;6.44;100.00;99665.72;4993055;28;20491;-69
2022/11/24 02:22:14;;;;;;;14.25;5.50;;;;;;;6.41;100.00;99663.22;4976201;28;20495;-70
2022/11/24 02:24:55;;;;;;;16.58;5.25;;;;;;;6.43;100.00;99663.16;4991242;28;20133;-68
2022/11/24 02:27:22;;;;;;;16.67;5.50;;;;;;;6.41;100.00;99662.38;5000063;28;20057;-69
2022/11/24 02:29:49;;;;;;;17.92;5.97;;;;;;;6.45;100.00;99661.31;4996740;28;20146;-70
2022/11/24 02:32:17;;;;;;;17.45;5.75;;;;;;;6.43;100.00;99661.38;4977610;28;20054;-69
2022/11/24 02:34:43;;;;;;;15.35;5.63;;;;;;;6.30;100.00;99633.88;4994017;28;20505;-69
2022/11/24 02:37:10;;;;;;;17.27;5.40;;;;;;;6.49;100.00;99650.59;4997156;28;20042;-70
2022/11/24 02:39:36;;;;;;;20.58;5.97;;;;;;;6.45;100.00;99624.50;5002112;28;20129;-70
2022/11/24 02:42:10;;;;;;;20.20;5.57;;;;;;;6.69;100.00;99658.50;4982982;28;20217;-71
2022/11/24 02:44:44;;;;;;;20.67;5.25;;;;;;;6.60;100.00;99621.22;4988126;28;20058;-72
2022/11/24 02:47:12;;;;;;;13.00;4.25;;;;;;;6.65;100.00;99630.59;4999757;28;20046;-70
2022/11/24 02:49:38;;;;;;;20.13;4.38;;;;;;;6.84;100.00;99645.59;4993264;28;20050;-72
2022/11/24 02:52:05;;;;;;;15.38;4.10;;;;;;;6.94;100.00;99645.13;4984801;28;20445;-70
2022/11/24 02:54:32;;;;;;;16.90;4.28;;;;;;;6.97;100.00;99652.88;4989877;28;20518;-72
2022/11/24 02:56:59;;;;;;;17.30;4.78;;;;;;;6.88;100.00;99634.03;4996707;28;20509;-71
2022/11/24 02:59:26;;;;;;;19.25;4.53;;;;;;;7.04;100.00;99656.13;4995093;28;20471;-72
2022/11/24 03:01:52;;;;;;;23.17;4.90;;;;;;;7.01;100.00;99664.13;4978460;28;20042;-72
2022/11/24 03:04:19;;;;;;;17.88;4.47;;;;;;;7.01;100.00;99665.00;4989947;28;20042;-73
2022/11/24 03:06:45;;;;;;;21.90;4.60;;;;;;;6.98;100.00;99669.53;5005992;28;20058;-71
2022/11/24 03:09:12;;;;;;;18.70;4.50;;;;;;;7.00;100.00;99667.69;4999659;28;20049;-72
2022/11/24 03:11:39;;;;;;;15.35;4.35;;;;;;;6.93;100.00;99661.84;4986519;28;20056;-69
2022/11/24 03:14:06;;;;;;;18.92;4.90;;;;;;;6.88;100.00;99666.47;4993865;28;20086;-72
2022/11/24 03:16:32;;;;;;;21.55;4.57;;;;;;;6.82;100.00;99669.34;5000509;28;20046;-71
2022/11/24 03:18:59;;;;;;;16.67;4.80;;;;;;;6.66;100.00;99652.50;5000877;28;20050;-71
2022/11/24 03:21:26;;;;;;;17.75;4.72;;;;;;;6.53;100.00;99636.41;4994430;28;20506;-69
2022/11/24 03:23:53;;;;;;;18.90;5.40;;;;;;;6.45;100.00;99642.91;4985915;28;20474;-72
2022/11/24 03:26:21;;;;;;;20.20;4.70;;;;;;;6.56;100.00;99669.63;5003266;28;20054;-73
2022/11/24 03:28:48;;;;;;;13.43;4.65;;;;;;;6.55;100.00;99668.75;4997922;28;20060;-72
2022/11/24 03:31:14;;;;;;;14.10;4.70;;;;;;;6.54;100.00;99672.31;5000832;28;20051;-73
2022/11/24 03:33:41;;;;;;;20.08;5.00;;;;;;;6.54;100.00;99667.03;4985528;28;20061;-68
2022/11/24 03:36:08;;;;;;;16.67;4.78;;;;;;;6.64;100.00;99670.97;5001727;28;20470;-72
2022/11/24 03:38:35;;;;;;;15.27;4.57;;;;;;;6.63;100.00;99671.03;5001590;28;20064;-72
2022/11/24 03:41:01;;;;;;;17.13;5.07;;;;;;;6.60;100.00;99669.44;4999149;28;20058;-71
2022/11/24 03:43:28;;;;;;;15.73;4.57;;;;;;;6.61;100.00;99675.53;4977643;28;20512;-71
2022/11/24 03:45:55;;;;;;;18.95;5.45;;;;;;;6.62;100.00;99667.56;4999709;28;20061;-71
2022/11/24 03:48:22;;;;;;;14.65;5.00;;;;;;;6.63;100.00;99663.16;4993018;28;20184;-69
2022/11/24 03:50:58;;;;;;;16.17;4.75;;;;;;;6.63;100.00;99674.53;4998124;28;20057;-71
2022/11/24 03:53:27;;;;;;;13.57;5.18;;;;;;;6.56;100.00;99649.44;4982633;28;20114;-71
2022/11/24 03:55:54;;;;;;;22.48;5.13;;;;;;;6.38;100.00;99636.19;4997728;28;20096;-69
2022/11/24 03:58:21;;;;;;;14.60;4.50;;;;;;;6.34;100.00;99638.94;4999417;28;20073;-71
2022/11/24 04:00:49;;;;;;;15.30;5.10;;;;;;;6.47;100.00;99677.88;5001236;28;20582;-72
2022/11/24 04:03:16;;;;;;;17.92;5.13;;;;;;;6.41;100.00;99676.38;4991534;28;20149;-70
2022/11/24 04:05:42;;;;;;;17.20;5.20;;;;;;;6.33;100.00;99676.66;5004020;28;20518;-70
2022/11/24 04:08:09;;;;;;;24.67;5.65;;;;;;;6.29;100.00;99690.88;4996589;28;20145;-70
2022/11/24 04:10:37;;;;;;;22.15;5.50;;;;;;;6.33;100.00;99688.97;4998876;28;20503;-71
2022/11/24 04:13:10;;;;;;;24.23;4.93;;;;;;;6.35;100.00;99692.38;4984344;28;20050;-70
2022/11/24 04:15:41;;;;;;;27.17;5.40;;;;;;;6.37;100.00;99698.44;4992011;28;20050;-71
2022/11/24 04:18:10;;;;;;;20.80;5.43;;;;;;;6.39;100.00;99698.38;5000994;28;20081;-70
2022/11/24 04:20:37;;;;;;;19.65;5.90;;;;;;;6.39;100.00;99707.13;4999881;28;20065;-71
2022/11/24 04:23:03;;;;;;;17.95;5.40;;;;;;;6.42;100.00;99707.00;4989713;28;20109;-71
2022/11/24 04:25:30;;;;;;;20.70;5.60;;;;;;;6.27;100.00;99671.69;4988022;28;20089;-70
2022/11/24 04:27:57;;;;;;;28.00;5.75;;;;;;;6.45;100.00;99696.38;5002384;28;20133;-70
2022/11/24 04:30:25;;;;;;;19.55;5.75;;;;;;;6.44;100.00;99699.91;4998376;28;20066;-71
2022/11/24 04:32:52;;;;;;;24.70;6.05;;;;;;;6.50;100.00;99717.19;4977758;28;20046;-71
2022/11/24 04:35:19;;;;;;;24.20;5.10;;;;;;;6.48;100.00;99700.63;4998769;28;20446;-70
2022/11/24 04:37:45;;;;;;;17.02;5.38;;;;;;;6.55;100.00;99707.34;5001043;28;20377;-70
2022/11/24 04:40:12;;;;;;;13.13;5.07;;;;;;;6.64;100.00;99712.22;4997953;28;20056;-68
2022/11/24 04:42:39;;;;;;;18.38;4.97;;;;;;;6.68;100.00;99717.31;4984427;28;20225;-69
2022/11/24 04:45:06;;;;;;;20.88;5.90;;;;;;;6.74;100.00;99716.19;4986634;28;20121;-70
2022/11/24 04:47:33;;;;;;;20.25;5.43;;;;;;;6.60;100.00;99693.09;4994191;28;20137;-69
2022/11/24 04:50:00;;;;;;;19.30;5.20;;;;;;;6.80;100.00;99723.81;4996540;28;20070;-71
2022/11/24 04:52:28;;;;;;;22.00;4.80;;;;;;;6.76;100.00;99711.72;4992027;28;20047;-70
2022/11/24 04:54:55;;;;;;;25.70;5.43;;;;;;;6.73;100.00;99700.47;4989028;28;20057;-71
2022/11/24 04:57:24;;;;;;;17.88;4.38;;;;;;;6.80;100.00;99699.28;4988150;28;20057;-69
2022/11/24 04:59:52;;;;;;;17.48;4.70;;;;;;;6.99;100.00;99726.53;4999710;28;20176;-72
2022/11/24 05:02:19;;;;;;;18.90;4.80;;;;;;;7.06;100.00;99724.50;4997483;28;20889;-71
2022/11/24 05:04:46;;;;;;;15.68;4.13;;;;;;;7.13;100.00;99732.03;4981822;28;20149;-72
2022/11/24 05:07:14;;;;;;;23.05;4.25;;;;;;;7.05;100.00;99702.59;4993195;28;20054;-73
2022/11/24 05:12:30;;;;;;;17.95;4.53;;;;;;;7.27;100.00;99737.56;4980701;28;20133;-73
2022/11/24 05:14:58;;;;;;;18.40;4.30;;;;;;;7.33;100.00;99739.94;4989068;28;20049;-69
2022/11/24 05:17:31;;;;;;;20.38;4.75;;;;;;;7.37;100.00;99732.78;4993877;28;20515;-72
2022/11/24 05:19:58;;;;;;;19.00;5.13;;;;;;;7.32;100.00;99722.44;5003984;28;20058;-70
2022/11/24 05:22:26;;;;;;;18.38;4.13;;;;;;;7.43;100.00;99734.25;4991178;28;20145;-68
2022/11/24 05:24:53;;;;;;;20.60;4.43;;;;;;;7.47;100.00;99749.00;4983590;28;20076;-71
2022/11/24 05:27:20;;;;;;;26.83;4.85;;;;;;;7.37;100.00;99719.59;4999885;28;20070;-71
2022/11/24 05:29:47;;;;;;;19.45;4.57;;;;;;;7.37;100.00;99730.13;4998106;28;20050;-73
2022/11/24 05:32:14;;;;;;;19.90;4.57;;;;;;;7.55;100.00;99754.81;4994556;28;20046;-70
2022/11/24 05:34:41;;;;;;;24.48;5.28;;;;;;;7.56;100.00;99756.47;4995096;28;20524;-67
2022/11/24 05:37:07;;;;;;;22.92;4.47;;;;;;;7.61;100.00;99757.16;4992476;28;20138;-72
2022/11/24 05:39:35;;;;;;;16.17;3.90;;;;;;;7.57;100.00;99745.88;5003344;28;20077;-69
2022/11/24 05:42:39;;;;;;;18.30;4.22;;;;;;;7.66;100.00;99763.06;4982693;28;20141;-71
2022/11/24 05:44:51;;;;;;;25.45;4.68;;;;;;;7.76;100.00;99764.34;4979932;28;20214;-71
2022/11/24 05:47:20;;;;;;;26.05;5.10;;;;;;;7.78;100.00;99778.31;4998689;28;20454;-71
2022/11/24 05:49:47;;;;;;;25.85;5.20;;;;;;;7.84;100.00;99778.06;4992773;28;20154;-69
2022/11/24 05:52:14;;;;;;;17.65;4.97;;;;;;;7.88;100.00;99779.59;4996540;28;20068;-71
2022/11/24 05:54:41;;;;;;;17.13;4.70;;;;;;;7.93;100.00;99772.34;4981849;28;20068;-69
2022/11/24 05:57:07;;;;;;;17.20;4.47;;;;;;;8.04;100.00;99772.69;4991978;28;20060;-70
2022/11/24 05:59:34;;;;;;;16.65;5.05;;;;;;;8.03;100.00;99773.63;4998607;28;20153;-70
2022/11/24 06:02:00;;;;;;;18.10;4.90;;;;;;;8.06;100.00;99772.63;4995472;28;20442;-70
2022/11/24 06:04:27;;;;;;;29.52;5.13;;;;;;;8.14;100.00;99777.56;4979739;28;20147;-71
2022/11/24 06:06:54;;;;;;;22.80;4.70;;;;;;;8.20;100.00;99788.66;5002180;28;20104;-69
2022/11/24 06:09:20;;;;;;;25.92;4.45;;;;;;;8.22;100.00;99781.53;4999080;28;20444;-71
2022/11/24 06:11:47;;;;;;;22.27;4.75;;;;;;;8.09;100.00;99749.63;4990025;28;20052;-71
2022/11/24 06:14:14;;;;;;;18.70;4.43;;;;;;;8.27;100.00;99778.69;4980814;28;20046;-70
2022/11/24 06:16:41;;;;;;;25.10;4.50;;;;;;;8.28;100.00;99783.03;4996481;28;20448;-70
2022/11/24 06:19:09;;;;;;;21.80;3.92;;;;;;;8.25;100.00;99791.09;4990617;28;20056;-69
2022/11/24 06:21:35;;;;;;;20.27;4.50;;;;;;;8.21;100.00;99789.53;4999873;28;20517;-71
2022/11/24 06:24:02;;;;;;;21.13;4.68;;;;;;;8.20;100.00;99790.44;4980661;28;20566;-69
2022/11/24 06:26:29;;;;;;;18.27;3.72;;;;;;;8.17;100.00;99801.16;4993303;28;20057;-68
2022/11/24 06:28:56;;;;;;;28.77;4.85;;;;;;;8.15;100.00;99798.59;4994414;28;20594;-72
2022/11/24 06:31:22;;;;;;;19.02;3.78;;;;;;;8.18;100.00;99808.16;5003208;28;20449;-71
2022/11/24 06:33:49;;;;;;;20.83;3.65;;;;;;;8.10;100.00;99801.44;4985158;28;20533;-72
2022/11/24 06:36:16;;;;;;;22.15;4.18;;;;;;;8.12;100.00;99814.56;4999922;28;20050;-72
2022/11/24 06:38:42;;;;;;;15.13;3.42;;;;;;;8.16;100.00;99802.94;4995840;28;20133;-71
2022/11/24 06:41:12;;;;;;;23.52;3.97;;;;;;;8.20;100.00;99811.53;4995619;28;20046;-72
2022/11/24 06:43:39;;;;;;;25.23;4.13;;;;;;;8.18;100.00;99813.44;4988774;28;20047;-70
2022/11/24 06:46:07;;;;;;;18.02;3.63;;;;;;;8.24;100.00;99807.84;5007609;28;20072;-70
2022/11/24 06:48:33;;;;;;;20.67;4.50;;;;;;;8.27;100.00;99813.84;4996567;28;20045;-74
2022/11/24 06:51:02;;;;;;;15.32;3.42;;;;;;;8.26;100.00;99812.13;4997621;28;20050;-71
2022/11/24 06:53:30;;;;;;;16.90;3.97;;;;;;;8.24;100.00;99811.34;4984073;28;20051;-68
2022/11/24 06:56:01;;;;;;;21.15;3.72;;;;;;;8.04;100.00;99791.16;4988486;28;20072;-71
2022/11/24 06:58:27;;;;;;;20.75;4.47;;;;;;;8.22;100.00;99823.75;5002527;28;20409;-72
2022/11/24 07:00:54;;;;;;;18.67;3.53;;;;;;;8.19;100.00;99823.03;5002216;28;20085;-70
2022/11/24 07:03:21;;;;;;;21.85;4.15;;;;;;;8.19;100.00;99826.50;4985073;28;20059;-71
2022/11/24 07:05:47;;;;;;;16.88;3.90;;;;;;;8.18;100.00;99830.09;4992645;28;20068;-69
2022/11/24 07:08:14;;;;;;;22.55;4.20;;;;;;;8.22;100.00;99828.16;5000113;28;20046;-68
2022/11/24 07:10:43;;;;;;;23.77;4.28;;;;;;;8.23;100.00;99827.22;4998718;28;20141;-71
2022/11/24 07:13:10;;;;;;;18.10;4.25;;;;;;;8.22;100.00;99814.97;4991380;28;20062;-73
2022/11/24 07:15:36;;;;;;;20.23;3.72;;;;;;;8.13;100.00;99807.50;4989091;28;20177;-71
2022/11/24 07:18:03;;;;;;;22.35;4.28;;;;;;;8.28;100.00;99841.94;4996331;28;20046;-71
2022/11/24 07:20:30;;;;;;;24.00;4.43;;;;;;;8.27;100.00;99842.84;4997449;28;20538;-74
2022/11/24 07:22:57;;;;;;;21.85;4.03;;;;;;;8.41;100.00;99843.09;4999833;28;20046;-70
2022/11/24 07:25:24;;;;;;;16.58;3.50;;;;;;;8.47;100.00;99846.38;4989202;28;20669;-73
2022/11/24 07:27:58;;;;;;;20.00;4.03;;;;;;;8.38;100.00;99837.97;5001670;28;20092;-72
2022/11/24 07:30:26;;;;;;;26.73;5.18;;;;;;;8.30;100.00;99849.78;5001422;28;20051;-73
2022/11/24 07:33:00;;;;;;;24.42;4.68;;;;;;;8.24;100.00;99850.91;4995321;28;20050;-68
2022/11/24 07:35:28;;;;;;;21.67;4.40;;;;;;;8.18;100.00;99826.63;4985071;28;20076;-71
2022/11/24 07:37:56;;;;;;;17.27;4.80;;;;;;;8.19;100.00;99833.56;4995531;28;20125;-73
2022/11/24 07:40:24;;;;;;;23.00;4.70;;;;;;;8.30;100.00;99861.19;4999159;28;20162;-72
2022/11/24 07:42:51;;;;;;;23.63;4.88;;;;;;;8.29;100.00;99866.53;4996523;28;20498;-67
2022/11/24 07:45:18;;;;;;;21.70;4.50;;;;;;;8.24;100.00;99872.00;4982514;28;20152;-71
2022/11/24 07:47:45;;;;;;;18.15;4.20;;;;;;;8.25;100.00;99878.13;4999085;28;20405;-72
2022/11/24 07:50:12;;;;;;;22.10;4.90;;;;;;;8.20;100.00;99880.97;4998561;28;20689;-72
2022/11/24 07:52:38;;;;;;;19.10;4.30;;;;;;;8.24;100.00;99873.78;4998573;28;20080;-71
2022/11/24 07:55:06;;;;;;;17.52;4.10;;;;;;;8.18;100.00;99874.09;4984115;28;20042;-71
2022/11/24 07:57:33;;;;;;;15.45;3.50;;;;;;;8.19;100.00;99876.63;4996566;28;20136;-70
2022/11/24 08:00:00;;;;;;;21.83;3.50;;;;;;;8.21;100.00;99881.84;5002672;28;20087;-73
2022/11/24 08:02:27;;;;;;;18.65;4.57;;;;;;;8.19;100.00;99879.25;4999496;28;20089;-71
2022/11/24 08:04:53;;;;;;;26.40;3.80;;;;;;;8.20;100.00;99890.66;4983227;28;20518;-70
2022/11/24 08:07:20;;;;;;;18.23;4.25;;;;;;;8.14;100.00;99885.69;4995086;28;20410;-72
2022/11/24 08:09:49;;;;;;;18.75;3.28;;;;;;;8.10;100.00;99891.09;5001738;28;20061;-71
2022/11/24 08:12:20;;;;;;;25.80;4.35;;;;;;;8.08;100.00;99892.94;4988641;28;20078;-71
2022/11/24 08:14:48;;;;;;;20.15;4.00;;;;;;;8.12;100.00;99906.00;4986637;28;20055;-71
2022/11/24 08:17:18;;;;;;;24.95;4.45;;;;;;;8.09;100.00;99894.66;4995863;28;20471;-71
2022/11/24 08:19:44;;;;;;;19.80;4.03;;;;;;;8.06;100.00;99900.06;5002619;28;20042;-71
2022/11/24 08:22:11;;;;;;;18.00;3.72;;;;;;;7.99;100.00;99887.25;4999865;28;20451;-70
2022/11/24 08:24:39;;;;;;;23.13;5.18;;;;;;;8.12;100.00;99904.22;4976741;28;20470;-71
2022/11/24 08:27:05;;;;;;;14.52;3.58;;;;;;;8.17;100.00;99907.50;4999899;28;20513;-68
2022/11/24 08:29:35;;;;;;;19.58;5.28;;;;;;;8.05;100.00;99887.81;4999882;28;20069;-70
2022/11/24 08:32:02;;;;;;;17.75;3.63;;;;;;;8.18;100.00;99911.00;4997376;28;20133;-72
2022/11/24 08:34:28;;;;;;;20.38;4.10;;;;;;;8.18;100.00;99908.38;4983738;28;20042;-69
2022/11/24 08:36:55;;;;;;;16.77;4.05;;;;;;;8.20;100.00;99917.91;4994287;28;20062;-70
2022/11/24 08:39:21;;;;;;;17.58;3.85;;;;;;;8.23;100.00;99923.03;5000400;28;20061;-70
2022/11/24 08:41:48;;;;;;;16.35;3.58;;;;;;;8.30;100.00;99940.31;4998062;28;20081;-70
2022/11/24 08:44:17;;;;;;;17.23;3.90;;;;;;;8.35;100.00;99934.84;4989729;28;20060;-70
2022/11/24 08:46:44;;;;;;;19.02;4.03;;;;;;;8.40;100.00;99935.50;4996956;28;20131;-69
2022/11/24 08:49:12;;;;;;;18.17;3.70;;;;;;;8.33;100.00;99913.00;4992747;28;20463;-70
2022/11/24 08:51:39;;;;;;;22.23;3.63;;;;;;;8.48;100.00;99941.31;4997244;28;20490;-72
2022/11/24 08:54:07;;;;;;;14.05;3.47;;;;;;;8.46;100.00;99951.06;4990745;28;20134;-69
2022/11/24 08:56:34;;;;;;;22.63;3.67;;;;;;;8.44;100.00;99952.91;4998518;28;20064;-71
2022/11/24 08:59:01;;;;;;;20.25;3.70;;;;;;;8.41;100.00;99950.41;4992057;28;21122;-70
2022/11/24 09:01:28;;;;;;;17.33;3.40;;;;;;;8.40;100.00;99946.06;5000542;28;20053;-69
2022/11/24 09:03:55;;;;;;;12.48;3.78;;;;;;;8.42;100.00;99938.94;4986299;28;22003;-69
2022/11/24 09:06:24;;;;;;;24.77;3.78;;;;;;;8.40;100.00;99938.16;4997323;28;20409;-70
2022/11/24 09:08:53;;;;;;;13.73;3.20;;;;;;;8.49;100.00;99955.38;4998462;28;20141;-72
2022/11/24 09:11:21;;;;;;;13.95;3.03;;;;;;;8.54;100.00;99964.75;4989586;28;20134;-69
2022/11/24 09:13:47;;;;;;;16.50;3.53;;;;;;;8.56;100.00;99957.63;4995094;28;20158;-71
2022/11/24 09:16:17;;;;;;;16.00;3.58;;;;;;;8.57;100.00;99955.84;4987965;28;20601;-70
2022/11/24 09:18:44;;;;;;;14.40;3.50;;;;;;;8.51;100.00;99956.97;4989670;28;20078;-70
2022/11/24 09:21:20;;;;;;;14.35;3.00;;;;;;;8.46;100.00;99960.78;4993352;28;20145;-68
2022/11/24 09:23:49;;;;;;;15.50;3.72;;;;;;;8.40;100.00;99957.47;4991880;28;20093;-70
2022/11/24 09:26:28;;;;;;;15.13;3.25;;;;;;;8.47;100.00;99963.34;4984848;28;20133;-71
2022/11/24 09:28:55;;;;;;;16.30;3.78;;;;;;;8.56;100.00;99968.19;4992422;28;20128;-72
2022/11/24 09:31:25;;;;;;;13.93;2.80;;;;;;;8.58;100.00;99974.25;4998882;28;20063;-71
2022/11/24 09:33:53;;;;;;;17.70;3.30;;;;;;;8.48;100.00;99949.22;4989676;28;20046;-68
2022/11/24 09:36:20;;;;;;;11.65;2.72;;;;;;;8.66;100.00;99981.81;4990584;28;20054;-68
2022/11/24 09:38:47;;;;;;;15.48;3.15;;;;;;;8.55;100.00;99949.78;5000206;28;20133;-68
2022/11/24 09:41:16;;;;;;;12.05;2.70;;;;;;;8.76;100.00;99983.13;5001331;28;20125;-70
2022/11/24 09:43:55;;;;;;;13.43;3.10;;;;;;;8.69;100.00;99957.94;4992355;28;20137;-70
2022/11/24 09:46:34;;;;;;;18.70;3.17;;;;;;;8.82;100.00;99990.75;4989918;28;20074;-70
2022/11/24 09:49:03;;;;;;;12.75;2.70;;;;;;;8.86;100.00;99991.47;4991828;28;20062;-70
2022/11/24 09:51:31;;;;;;;17.42;3.38;;;;;;;8.88;100.00;99986.97;4998899;28;20133;-71
2022/11/24 09:54:02;;;;;;;15.07;3.42;;;;;;;8.77;100.00;99972.50;4998321;28;20149;-69
2022/11/24 09:56:33;;;;;;;13.52;3.38;;;;;;;8.89;100.00;99992.19;4986934;28;20063;-70
2022/11/24 09:59:02;;;;;;;12.68;2.70;;;;;;;8.75;100.00;99969.06;4996939;28;20117;-70
2022/11/24 10:01:34;;;;;;;18.30;3.80;;;;;;;8.90;100.00;99996.53;5000861;28;20052;-70
2022/11/24 10:04:02;;;;;;;12.18;3.05;;;;;;;8.90;100.00;99995.69;4985461;28;20051;-71
2022/11/24 10:06:39;;;;;;;14.63;3.20;;;;;;;8.86;100.00;100002.03;4981853;28;20046;-69
2022/11/24 10:09:44;;;;;;;17.85;3.55;;;;;;;8.82;100.00;100001.31;4986914;28;20129;-71
2022/11/24 10:12:38;;;;;;;14.10;2.70;;;;;;;8.87;100.00;99979.97;4994858;28;20101;-71
2022/11/24 10:15:32;;;;;;;10.32;3.03;;;;;;;9.29;100.00;100012.28;4986856;28;20129;-69
2022/11/24 10:18:04;;;;;;;15.38;2.85;;;;;;;9.40;100.00;99994.16;4994312;28;20482;-69
2022/11/24 10:20:46;;;;;;;16.15;3.10;;;;;;;9.59;100.00;100006.47;5000025;28;20046;-70
2022/11/24 10:23:40;;;;;;;11.43;2.95;;;;;;;9.67;100.00;100013.09;4993548;28;20049;-69
2022/11/24 10:26:23;;;;;;;11.13;2.63;;;;;;;9.74;100.00;100011.88;4981813;28;20092;-72
2022/11/24 10:28:54;;;;;;;18.35;6.00;;;;;;;9.86;100.00;100018.31;4989822;28;20072;-70
2022/11/24 10:31:39;;;;;;;12.50;2.70;;;;;;;9.92;100.00;100015.34;4998409;28;20051;-70
2022/11/24 10:34:16;;;;;;;11.68;2.35;;;;;;;9.95;100.00;100023.13;4993743;28;20038;-71
2022/11/24 10:37:05;;;;;;;10.85;2.42;;;;;;;9.97;100.00;100026.56;4984311;28;20043;-72
2022/11/24 10:39:45;;;;;;;16.38;3.25;;;;;;;9.83;100.00;100029.03;5002033;28;20072;-70
2022/11/24 10:42:21;;;;;;;12.20;3.10;;;;;;;9.63;100.00;100003.59;4993359;28;20073;-67
2022/11/24 10:45:17;;;;;;;16.75;2.63;;;;;;;9.73;100.00;100028.66;4987756;28;20088;-70
2022/11/24 10:47:45;;;;;;;10.57;2.63;;;;;;;9.69;100.00;100023.59;4986486;28;20062;-72
2022/11/24 10:50:22;;;;;;;14.73;2.47;;;;;;;9.78;100.00;100037.19;4995143;28;20057;-71
2022/11/24 10:53:13;;;;;;;11.20;2.47;;;;;;;9.88;100.00;100034.97;5001163;28;20053;-71
2022/11/24 10:55:55;;;;;;;11.75;3.42;;;;;;;10.01;100.00;100030.78;4978632;28;20042;-71
2022/11/24 10:58:27;;;;;;;8.20;1.83;;;;;;;10.15;100.00;100030.06;4991622;28;20068;-71
2022/11/24 11:01:19;;;;;;;9.57;2.30;;;;;;;10.06;100.00;100042.00;4998724;28;20145;-72
2022/11/24 11:03:56;;;;;;;12.02;2.20;;;;;;;9.99;100.00;100032.63;4983929;28;20403;-72
2022/11/24 11:06:30;;;;;;;11.23;2.20;;;;;;;10.00;100.00;100044.94;4980562;28;20046;-73
2022/11/24 11:09:06;;;;;;;10.00;2.35;;;;;;;10.09;100.00;100040.97;4995290;28;20050;-72
2022/11/24 11:11:34;;;;;;;14.35;2.95;;;;;;;10.14;100.00;100044.22;4991334;28;20054;-73
2022/11/24 11:14:06;;;;;;;10.65;2.40;;;;;;;10.21;100.00;100040.38;4999485;28;20409;-70
2022/11/24 11:16:44;;;;;;;11.18;2.78;;;;;;;10.26;100.00;100048.94;4984745;28;20056;-72
2022/11/24 11:19:31;;;;;;;13.00;2.33;;;;;;;10.18;100.00;100051.09;4995314;28;20050;-72
2022/11/24 11:22:23;;;;;;;10.65;2.28;;;;;;;10.09;100.00;100049.75;4996578;28;20057;-71
2022/11/24 11:25:21;;;;;;;10.02;2.80;;;;;;;9.98;100.00;100038.84;4977632;28;20125;-71
2022/11/24 11:27:48;;;;;;;13.23;2.20;;;;;;;9.97;100.00;100049.50;5001685;28;20180;-70
2022/11/24 11:30:18;;;;;;;15.85;2.90;;;;;;;9.96;100.00;100050.44;4997758;28;20467;-71
2022/11/24 11:33:27;;;;;;;9.18;1.90;;;;;;;9.95;100.00;100059.31;5003814;28;20045;-70
2022/11/24 11:36:15;;;;;;;11.35;2.05;;;;;;;10.00;100.00;100057.31;5001037;28;20053;-72
2022/11/24 11:38:42;;;;;;;8.15;2.05;;;;;;;10.00;100.00;100063.44;5002510;28;20149;-70
2022/11/24 11:41:18;;;;;;;10.77;2.10;;;;;;;9.99;100.00;100067.03;4997961;28;20085;-71